Main page
METAR-TAF:

METAR-TAF

Airports :

Irkutsk, Russia

International Airport Irkutsk

latitude: 52-16N, longitude: 104-19E, elevation: 513 m

Current weather observation

The report was made 28 minutes ago, at 04:30 UTC
Wind 8 kt from the Northwest, varying between West/Northwest and Northeast
Temperature 22°C
Humidity 53%
Pressure 1014 hPa
Visibility 10 km or more
Scattered clouds at a height of 3300 ft

METAR: UIII 220430Z 32004MPS 300V050 9999 SCT033 22/12 Q1014 R30/CLRD60 NOSIG RMK QFE716/0954

Time: 12:58 (04:58 UTC)

Forecast

The report was made 2 hours and 58 minutes ago, at 02:00 UTC
Forecast valid from 22 at 03 UTC to 23 at 03 UTC
Wind 6 kt from the West/Northwest
Visibility 10 km or more
Scattered clouds at a height of 2000 ft, Cumulonimbus.
Temporary
from 22 at 06 UTC to 22 at 18 UTC
Wind 16 kt from variable directions
thunderstorm, light rain

TAF: UIII 220200Z 2203/2303 30003MPS 9999 SCT020CB TEMPO 2206/2218 VRB08MPS -TSRA

Weather observations and forecasts of more than 4000 airports (METAR and TAF reports).

The available stations are represented by yellow and red dots on the map.

Hover mouse over dot to see the name of the station.

Then click to see weather observations and forecasts.

To change the map : click on the green buttons with a black cross to zoom in, on the green button with a dash to zoom out, or on the green arrows for adjacent maps.


METAR-TAF: